sensor_id;sensor_type;location;lat;lon;timestamp;temperature;humidity
19224;DHT22;9746;47.180;9.776;2023-02-03T10:46:29;12.00;99.90
19224;DHT22;9746;47.180;9.776;2023-02-03T10:48:58;12.20;99.90
19224;DHT22;9746;47.180;9.776;2023-02-03T10:51:33;12.70;99.90
19224;DHT22;9746;47.180;9.776;2023-02-03T10:54:26;12.80;99.90
19224;DHT22;9746;47.180;9.776;2023-02-03T10:57:02;13.00;99.90
19224;DHT22;9746;47.180;9.776;2023-02-03T10:59:33;13.00;99.90
19224;DHT22;9746;47.180;9.776;2023-02-03T11:02:09;13.20;99.90
19224;DHT22;9746;47.180;9.776;2023-02-03T11:04:48;13.30;99.90
19224;DHT22;9746;47.180;9.776;2023-02-03T11:07:37;13.50;99.90
19224;DHT22;9746;47.180;9.776;2023-02-03T11:10:28;13.50;99.90
19224;DHT22;9746;47.180;9.776;2023-02-03T11:13:19;13.50;99.90
19224;DHT22;9746;47.180;9.776;2023-02-03T11:15:58;13.60;99.90
19224;DHT22;9746;47.180;9.776;2023-02-03T11:18:41;13.60;99.90
19224;DHT22;9746;47.180;9.776;2023-02-03T11:21:15;13.50;99.90
19224;DHT22;9746;47.180;9.776;2023-02-03T11:23:54;13.50;99.90
19224;DHT22;9746;47.180;9.776;2023-02-03T11:26:25;13.50;99.90
19224;DHT22;9746;47.180;9.776;2023-02-03T11:32:43;13.70;99.90
19224;DHT22;9746;47.180;9.776;2023-02-03T11:35:18;13.60;99.90
19224;DHT22;9746;47.180;9.776;2023-02-03T11:40:59;12.80;99.90
19224;DHT22;9746;47.180;9.776;2023-02-03T11:43:36;12.40;99.90
19224;DHT22;9746;47.180;9.776;2023-02-03T11:46:06;12.00;99.90
19224;DHT22;9746;47.180;9.776;2023-02-03T11:49:04;11.80;99.90
19224;DHT22;9746;47.180;9.776;2023-02-03T11:51:44;11.40;99.90
19224;DHT22;9746;47.180;9.776;2023-02-03T11:54:25;11.30;99.90
19224;DHT22;9746;47.180;9.776;2023-02-03T11:57:20;11.10;99.90
19224;DHT22;9746;47.180;9.776;2023-02-03T12:00:11;10.90;99.90
19224;DHT22;9746;47.180;9.776;2023-02-03T12:03:10;10.90;99.90
19224;DHT22;9746;47.180;9.776;2023-02-03T12:06:01;11.00;99.90
19224;DHT22;9746;47.180;9.776;2023-02-03T12:08:55;11.10;99.90
19224;DHT22;9746;47.180;9.776;2023-02-03T12:11:36;11.20;99.90
19224;DHT22;9746;47.180;9.776;2023-02-03T12:14:21;11.20;99.90
19224;DHT22;9746;47.180;9.776;2023-02-03T12:20:29;10.80;99.90
19224;DHT22;9746;47.180;9.776;2023-02-03T12:23:25;10.70;99.90
19224;DHT22;9746;47.180;9.776;2023-02-03T12:26:15;10.90;99.90
19224;DHT22;9746;47.180;9.776;2023-02-03T12:29:03;10.90;99.90
19224;DHT22;9746;47.180;9.776;2023-02-03T12:31:36;11.00;99.90
19224;DHT22;9746;47.180;9.776;2023-02-03T12:34:29;11.00;99.90
19224;DHT22;9746;47.180;9.776;2023-02-03T12:37:07;11.10;99.90
19224;DHT22;9746;47.180;9.776;2023-02-03T12:39:40;11.10;99.90
19224;DHT22;9746;47.180;9.776;2023-02-03T12:42:21;11.20;99.90
19224;DHT22;9746;47.180;9.776;2023-02-03T12:45:02;11.30;99.90
19224;DHT22;9746;47.180;9.776;2023-02-03T12:47:39;11.20;99.90
19224;DHT22;9746;47.180;9.776;2023-02-03T12:50:17;11.20;99.90
19224;DHT22;9746;47.180;9.776;2023-02-03T12:53:08;11.20;99.90
19224;DHT22;9746;47.180;9.776;2023-02-03T12:56:02;11.30;99.90
19224;DHT22;9746;47.180;9.776;2023-02-03T12:58:43;11.20;99.90
19224;DHT22;9746;47.180;9.776;2023-02-03T13:01:21;11.20;99.90
19224;DHT22;9746;47.180;9.776;2023-02-03T13:03:58;11.20;99.90
19224;DHT22;9746;47.180;9.776;2023-02-03T13:06:40;11.10;99.90
19224;DHT22;9746;47.180;9.776;2023-02-03T13:09:26;11.10;99.90
19224;DHT22;9746;47.180;9.776;2023-02-03T13:12:00;10.90;99.90
19224;DHT22;9746;47.180;9.776;2023-02-03T13:14:37;10.90;99.90
19224;DHT22;9746;47.180;9.776;2023-02-03T13:17:14;10.50;99.90
19224;DHT22;9746;47.180;9.776;2023-02-03T13:19:48;10.40;99.90
19224;DHT22;9746;47.180;9.776;2023-02-03T13:22:16;10.20;99.90
19224;DHT22;9746;47.180;9.776;2023-02-03T13:24:47;10.00;99.90
19224;DHT22;9746;47.180;9.776;2023-02-03T13:27:25;9.70;99.90
19224;DHT22;9746;47.180;9.776;2023-02-03T13:30:10;9.70;99.90
19224;DHT22;9746;47.180;9.776;2023-02-03T13:32:53;9.60;99.90
19224;DHT22;9746;47.180;9.776;2023-02-03T13:35:36;9.40;99.90
19224;DHT22;9746;47.180;9.776;2023-02-03T13:38:36;9.30;99.90
19224;DHT22;9746;47.180;9.776;2023-02-03T13:41:21;9.30;99.90
19224;DHT22;9746;47.180;9.776;2023-02-03T13:47:21;9.30;99.90
19224;DHT22;9746;47.180;9.776;2023-02-03T13:50:14;9.30;99.90
19224;DHT22;9746;47.180;9.776;2023-02-03T13:52:59;9.40;99.90
19224;DHT22;9746;47.180;9.776;2023-02-03T13:55:36;9.40;99.90
19224;DHT22;9746;47.180;9.776;2023-02-03T14:01:30;9.20;99.90
19224;DHT22;9746;47.180;9.776;2023-02-03T14:07:32;9.20;99.90
19224;DHT22;9746;47.180;9.776;2023-02-03T14:13:19;9.00;99.90
19224;DHT22;9746;47.180;9.776;2023-02-03T14:16:20;8.90;99.90
19224;DHT22;9746;47.180;9.776;2023-02-03T14:18:51;8.90;99.90
19224;DHT22;9746;47.180;9.776;2023-02-03T14:21:24;8.80;99.90
19224;DHT22;9746;47.180;9.776;2023-02-03T14:24:08;8.70;99.90
19224;DHT22;9746;47.180;9.776;2023-02-03T14:26:40;8.60;99.90
19224;DHT22;9746;47.180;9.776;2023-02-03T14:29:34;8.50;99.90
19224;DHT22;9746;47.180;9.776;2023-02-03T14:32:03;8.20;99.90
19224;DHT22;9746;47.180;9.776;2023-02-03T14:34:46;8.10;99.90
19224;DHT22;9746;47.180;9.776;2023-02-03T14:37:20;8.10;99.90
19224;DHT22;9746;47.180;9.776;2023-02-03T14:43:24;8.30;99.90
19224;DHT22;9746;47.180;9.776;2023-02-03T14:46:33;8.40;99.90
19224;DHT22;9746;47.180;9.776;2023-02-03T14:49:31;8.40;99.90
19224;DHT22;9746;47.180;9.776;2023-02-03T14:55:29;8.50;99.90
19224;DHT22;9746;47.180;9.776;2023-02-03T14:58:02;8.60;99.90
19224;DHT22;9746;47.180;9.776;2023-02-03T15:00:33;8.60;99.90
19224;DHT22;9746;47.180;9.776;2023-02-03T15:03:24;8.70;99.90
19224;DHT22;9746;47.180;9.776;2023-02-03T15:05:55;8.70;99.90
19224;DHT22;9746;47.180;9.776;2023-02-03T15:11:46;8.70;99.90
19224;DHT22;9746;47.180;9.776;2023-02-03T15:14:41;8.70;99.90
19224;DHT22;9746;47.180;9.776;2023-02-03T15:17:12;8.70;99.90
19224;DHT22;9746;47.180;9.776;2023-02-03T15:19:49;8.60;99.90
19224;DHT22;9746;47.180;9.776;2023-02-03T15:22:22;8.50;99.90
19224;DHT22;9746;47.180;9.776;2023-02-03T15:25:16;8.50;99.90
19224;DHT22;9746;47.180;9.776;2023-02-03T15:27:45;8.30;99.90
19224;DHT22;9746;47.180;9.776;2023-02-03T15:30:28;8.30;99.90
19224;DHT22;9746;47.180;9.776;2023-02-03T15:33:00;8.30;99.90
19224;DHT22;9746;47.180;9.776;2023-02-03T15:35:42;8.20;99.90
19224;DHT22;9746;47.180;9.776;2023-02-03T15:38:13;8.10;99.90
19224;DHT22;9746;47.180;9.776;2023-02-03T15:40:49;7.90;99.90
19224;DHT22;9746;47.180;9.776;2023-02-03T15:43:21;7.80;99.90
19224;DHT22;9746;47.180;9.776;2023-02-03T15:45:59;7.60;99.90
19224;DHT22;9746;47.180;9.776;2023-02-03T15:48:34;7.50;99.90
19224;DHT22;9746;47.180;9.776;2023-02-03T15:51:06;7.50;99.90
19224;DHT22;9746;47.180;9.776;2023-02-03T15:53:55;7.40;99.90
19224;DHT22;9746;47.180;9.776;2023-02-03T15:56:31;7.30;99.90
19224;DHT22;9746;47.180;9.776;2023-02-03T15:59:25;7.30;99.90
19224;DHT22;9746;47.180;9.776;2023-02-03T16:01:53;7.20;99.90
19224;DHT22;9746;47.180;9.776;2023-02-03T16:04:23;7.00;99.90
19224;DHT22;9746;47.180;9.776;2023-02-03T16:06:53;7.00;99.90
19224;DHT22;9746;47.180;9.776;2023-02-03T16:09:32;7.00;99.90
19224;DHT22;9746;47.180;9.776;2023-02-03T16:12:10;6.90;99.90
19224;DHT22;9746;47.180;9.776;2023-02-03T16:14:44;6.80;99.90
19224;DHT22;9746;47.180;9.776;2023-02-03T16:17:25;6.80;99.90
19224;DHT22;9746;47.180;9.776;2023-02-03T16:20:22;6.70;99.90
19224;DHT22;9746;47.180;9.776;2023-02-03T16:23:03;6.60;99.90
19224;DHT22;9746;47.180;9.776;2023-02-03T16:25:40;6.50;99.90
19224;DHT22;9746;47.180;9.776;2023-02-03T16:28:15;6.40;99.90
19224;DHT22;9746;47.180;9.776;2023-02-03T16:31:14;6.40;99.90
19224;DHT22;9746;47.180;9.776;2023-02-03T16:34:18;6.20;99.90
19224;DHT22;9746;47.180;9.776;2023-02-03T16:37:11;6.20;99.90
19224;DHT22;9746;47.180;9.776;2023-02-03T16:40:24;6.10;99.90
19224;DHT22;9746;47.180;9.776;2023-02-03T16:43:11;6.00;99.90
19224;DHT22;9746;47.180;9.776;2023-02-03T16:46:31;6.00;99.90
19224;DHT22;9746;47.180;9.776;2023-02-03T16:49:46;5.90;99.90
19224;DHT22;9746;47.180;9.776;2023-02-03T16:52:30;5.90;99.90
19224;DHT22;9746;47.180;9.776;2023-02-03T16:55:35;5.80;99.90
19224;DHT22;9746;47.180;9.776;2023-02-03T16:58:02;5.70;99.90
19224;DHT22;9746;47.180;9.776;2023-02-03T17:00:32;5.70;99.90
19224;DHT22;9746;47.180;9.776;2023-02-03T17:03:04;5.70;99.90
19224;DHT22;9746;47.180;9.776;2023-02-03T17:05:36;5.70;99.90
19224;DHT22;9746;47.180;9.776;2023-02-03T17:08:04;5.70;99.90
19224;DHT22;9746;47.180;9.776;2023-02-03T17:10:34;5.70;99.90
19224;DHT22;9746;47.180;9.776;2023-02-03T17:13:01;5.70;99.90
19224;DHT22;9746;47.180;9.776;2023-02-03T17:15:29;5.70;99.90
19224;DHT22;9746;47.180;9.776;2023-02-03T17:17:57;5.70;99.90
19224;DHT22;9746;47.180;9.776;2023-02-03T17:20:28;5.60;99.90
19224;DHT22;9746;47.180;9.776;2023-02-03T17:22:55;5.60;99.90
19224;DHT22;9746;47.180;9.776;2023-02-03T17:25:32;5.60;99.90
19224;DHT22;9746;47.180;9.776;2023-02-03T17:28:01;5.50;99.90
19224;DHT22;9746;47.180;9.776;2023-02-03T17:30:55;5.50;99.90
19224;DHT22;9746;47.180;9.776;2023-02-03T17:33:22;5.60;99.90
19224;DHT22;9746;47.180;9.776;2023-02-03T17:36:05;5.60;99.90
19224;DHT22;9746;47.180;9.776;2023-02-03T17:38:36;5.50;99.90
19224;DHT22;9746;47.180;9.776;2023-02-03T17:41:10;5.50;99.90
19224;DHT22;9746;47.180;9.776;2023-02-03T17:43:38;5.40;99.90
19224;DHT22;9746;47.180;9.776;2023-02-03T17:46:09;5.30;99.90
19224;DHT22;9746;47.180;9.776;2023-02-03T17:48:37;5.30;99.90
19224;DHT22;9746;47.180;9.776;2023-02-03T17:51:08;5.30;99.90
19224;DHT22;9746;47.180;9.776;2023-02-03T17:53:36;5.20;99.90
19224;DHT22;9746;47.180;9.776;2023-02-03T17:56:15;5.20;99.90
19224;DHT22;9746;47.180;9.776;2023-02-03T17:58:43;5.20;99.90
19224;DHT22;9746;47.180;9.776;2023-02-03T18:01:12;5.20;99.90
19224;DHT22;9746;47.180;9.776;2023-02-03T18:03:42;5.20;99.90
19224;DHT22;9746;47.180;9.776;2023-02-03T18:06:34;5.10;99.90
19224;DHT22;9746;47.180;9.776;2023-02-03T18:09:02;5.10;99.90
19224;DHT22;9746;47.180;9.776;2023-02-03T18:11:32;5.10;99.90
19224;DHT22;9746;47.180;9.776;2023-02-03T18:14:00;5.00;99.90
19224;DHT22;9746;47.180;9.776;2023-02-03T18:16:32;5.00;99.90
19224;DHT22;9746;47.180;9.776;2023-02-03T18:19:02;5.00;99.90
19224;DHT22;9746;47.180;9.776;2023-02-03T18:21:30;5.00;99.90
19224;DHT22;9746;47.180;9.776;2023-02-03T18:24:00;5.00;99.90
19224;DHT22;9746;47.180;9.776;2023-02-03T18:26:45;5.00;99.90
19224;DHT22;9746;47.180;9.776;2023-02-03T18:29:13;5.00;99.90
19224;DHT22;9746;47.180;9.776;2023-02-03T18:31:46;5.00;99.90
19224;DHT22;9746;47.180;9.776;2023-02-03T18:34:17;5.10;99.90
19224;DHT22;9746;47.180;9.776;2023-02-03T18:39:40;5.10;99.90
19224;DHT22;9746;47.180;9.776;2023-02-03T18:42:08;5.10;99.90
19224;DHT22;9746;47.180;9.776;2023-02-03T18:44:48;5.20;99.90
19224;DHT22;9746;47.180;9.776;2023-02-03T18:47:15;5.10;99.90
19224;DHT22;9746;47.180;9.776;2023-02-03T18:49:50;5.20;99.90
19224;DHT22;9746;47.180;9.776;2023-02-03T18:52:18;5.20;99.90
19224;DHT22;9746;47.180;9.776;2023-02-03T18:54:47;5.10;99.90
19224;DHT22;9746;47.180;9.776;2023-02-03T18:57:16;5.10;99.90
19224;DHT22;9746;47.180;9.776;2023-02-03T18:59:44;5.00;99.90
19224;DHT22;9746;47.180;9.776;2023-02-03T19:02:11;5.00;99.90
19224;DHT22;9746;47.180;9.776;2023-02-03T19:04:38;5.00;99.90
19224;DHT22;9746;47.180;9.776;2023-02-03T19:07:06;4.90;99.90
19224;DHT22;9746;47.180;9.776;2023-02-03T19:09:34;5.00;99.90
19224;DHT22;9746;47.180;9.776;2023-02-03T19:12:09;5.00;99.90
19224;DHT22;9746;47.180;9.776;2023-02-03T19:14:36;4.90;99.90
19224;DHT22;9746;47.180;9.776;2023-02-03T19:17:04;5.00;99.90
19224;DHT22;9746;47.180;9.776;2023-02-03T19:19:31;5.00;99.90
19224;DHT22;9746;47.180;9.776;2023-02-03T19:21:59;5.00;99.90
19224;DHT22;9746;47.180;9.776;2023-02-03T19:24:26;5.00;99.90
19224;DHT22;9746;47.180;9.776;2023-02-03T19:27:15;5.00;99.90
19224;DHT22;9746;47.180;9.776;2023-02-03T19:29:42;5.00;99.90
19224;DHT22;9746;47.180;9.776;2023-02-03T19:32:10;5.00;99.90
19224;DHT22;9746;47.180;9.776;2023-02-03T19:34:38;5.00;99.90
19224;DHT22;9746;47.180;9.776;2023-02-03T19:37:07;4.90;99.90
19224;DHT22;9746;47.180;9.776;2023-02-03T19:39:34;4.90;99.90
19224;DHT22;9746;47.180;9.776;2023-02-03T19:42:02;4.90;99.90
19224;DHT22;9746;47.180;9.776;2023-02-03T19:44:31;4.90;99.90
19224;DHT22;9746;47.180;9.776;2023-02-03T19:47:01;4.90;99.90
19224;DHT22;9746;47.180;9.776;2023-02-03T19:49:30;4.90;99.90
19224;DHT22;9746;47.180;9.776;2023-02-03T19:52:04;4.90;99.90
19224;DHT22;9746;47.180;9.776;2023-02-03T19:54:34;4.90;99.90
19224;DHT22;9746;47.180;9.776;2023-02-03T19:57:08;4.80;99.90
19224;DHT22;9746;47.180;9.776;2023-02-03T19:59:37;4.80;99.90
19224;DHT22;9746;47.180;9.776;2023-02-03T20:02:05;4.70;99.90
19224;DHT22;9746;47.180;9.776;2023-02-03T20:04:32;4.80;99.90
19224;DHT22;9746;47.180;9.776;2023-02-03T20:07:00;4.80;99.90
19224;DHT22;9746;47.180;9.776;2023-02-03T20:09:31;4.80;99.90
19224;DHT22;9746;47.180;9.776;2023-02-03T20:12:02;4.80;99.90
19224;DHT22;9746;47.180;9.776;2023-02-03T20:14:30;4.80;99.90
19224;DHT22;9746;47.180;9.776;2023-02-03T20:17:06;4.80;99.90
19224;DHT22;9746;47.180;9.776;2023-02-03T20:19:33;4.80;99.90
19224;DHT22;9746;47.180;9.776;2023-02-03T20:22:01;4.90;99.90
19224;DHT22;9746;47.180;9.776;2023-02-03T20:24:29;4.90;99.90
19224;DHT22;9746;47.180;9.776;2023-02-03T20:26:57;4.90;99.90
19224;DHT22;9746;47.180;9.776;2023-02-03T20:29:25;4.90;99.90
19224;DHT22;9746;47.180;9.776;2023-02-03T20:31:54;4.80;99.90
19224;DHT22;9746;47.180;9.776;2023-02-03T20:34:25;4.70;99.90
19224;DHT22;9746;47.180;9.776;2023-02-03T20:37:09;4.80;99.90
